CheckWX is a tool to help pilots better visualize weather data.  It is not intended as a substitute for an official pre-flight weather briefing.

07:51:59 UTC

DTTG TAF
Gabès Matmata International Airport
Gabès, Tunisia
TAF DTTG 150600Z 1507/1516 13008KT 9999 FEW020

Sep-15@
07:00 UTC

Sep-15 @ 07:00 UTC

Sep-15@
16:00 UTC

Sep-15 @ 16:00 UTC

TAF DTTG 150600Z 1507/1516 13008KT 9999 FEW020
Wind
  • 130° at 8 KTS
Cloud Levels
  • Few at 2,000' AGL